Time;durP1;ratioP1;P1;durP2;ratioP2;P2;SDS_P1;SDS_P2;PMS_P1;PMS_P2;Temp;Humidity;BMP_temperature;BMP_pressure;BME280_temperature;BME280_humidity;BME280_pressure;Samples;Min_cycle;Max_cycle;Signal;HPM_P1;HPM_P2
2022/07/04 00:02:22;;;;;;;1.75;1.63;;;;;;;;;;4984989;28;20034;-70
2022/07/04 00:04:47;;;;;;;1.85;1.60;;;;;;;;;;4984152;28;20595;-70
2022/07/04 00:07:13;;;;;;;3.60;1.73;;;;;;;;;;4983437;28;20030;-70
2022/07/04 00:09:39;;;;;;;2.10;1.50;;;;;;;;;;4984029;28;20050;-70
2022/07/04 00:12:05;;;;;;;3.63;1.80;;;;;;;;;;4984494;28;20057;-70
2022/07/04 00:14:31;;;;;;;3.10;1.58;;;;;;;;;;4984003;28;20058;-70
2022/07/04 00:16:57;;;;;;;2.13;1.60;;;;;;;;;;4982963;28;20171;-70
2022/07/04 00:19:23;;;;;;;2.53;1.60;;;;;;;;;;4984121;28;20170;-70
2022/07/04 00:21:48;;;;;;;1.65;1.48;;;;;;;;;;4983984;28;20066;-70
2022/07/04 00:24:13;;;;;;;1.73;1.30;;;;;;;;;;4984062;28;20475;-70
2022/07/04 00:26:39;;;;;;;1.38;1.27;;;;;;;;;;4983606;28;20038;-70
2022/07/04 00:29:04;;;;;;;1.55;1.40;;;;;;;;;;4983461;28;20487;-70
2022/07/04 00:31:30;;;;;;;2.13;1.38;;;;;;;;;;4984077;28;20100;-70
2022/07/04 00:33:55;;;;;;;4.10;1.33;;;;;;;;;;4983801;28;20045;-70
2022/07/04 00:36:21;;;;;;;3.47;1.30;;;;;;;;;;4983186;28;20061;-70
2022/07/04 00:38:46;;;;;;;2.13;1.38;;;;;;;;;;4982810;28;20038;-70
2022/07/04 00:41:12;;;;;;;2.97;1.23;;;;;;;;;;4983576;28;20042;-70
2022/07/04 00:43:38;;;;;;;3.42;1.80;;;;;;;;;;4983726;28;20064;-70
2022/07/04 00:46:05;;;;;;;1.50;1.40;;;;;;;;;;4983350;28;20061;-71
2022/07/04 00:48:31;;;;;;;1.75;1.35;;;;;;;;;;4983521;28;20053;-70
2022/07/04 00:50:56;;;;;;;1.75;1.40;;;;;;;;;;4982878;28;20050;-70
2022/07/04 00:53:25;;;;;;;5.38;1.45;;;;;;;;;;4983292;28;20049;-71
2022/07/04 00:55:52;;;;;;;4.00;1.60;;;;;;;;;;4983163;28;20120;-70
2022/07/04 00:58:22;;;;;;;3.72;1.50;;;;;;;;;;4983690;28;20038;-70
2022/07/04 01:00:48;;;;;;;4.10;1.30;;;;;;;;;;4982983;28;20117;-70
2022/07/04 01:03:14;;;;;;;2.00;1.40;;;;;;;;;;4983142;28;20451;-70
2022/07/04 01:05:40;;;;;;;3.33;1.40;;;;;;;;;;4983167;28;20053;-70
2022/07/04 01:08:06;;;;;;;3.53;1.50;;;;;;;;;;4983232;28;20048;-71
2022/07/04 01:10:31;;;;;;;3.13;1.50;;;;;;;;;;4983466;28;20038;-70
2022/07/04 01:12:57;;;;;;;3.08;1.95;;;;;;;;;;4981968;28;20034;-70
2022/07/04 01:15:22;;;;;;;3.42;1.80;;;;;;;;;;4981737;28;20405;-71
2022/07/04 01:17:49;;;;;;;6.18;1.85;;;;;;;;;;4982724;28;20066;-70
2022/07/04 01:20:15;;;;;;;2.65;1.85;;;;;;;;;;4983276;28;20590;-70
2022/07/04 01:22:41;;;;;;;3.45;1.75;;;;;;;;;;4981767;28;20053;-70
2022/07/04 01:25:08;;;;;;;3.00;2.10;;;;;;;;;;4982930;28;20037;-70
2022/07/04 01:27:33;;;;;;;8.30;2.13;;;;;;;;;;4982843;28;20049;-70
2022/07/04 01:29:59;;;;;;;5.13;2.03;;;;;;;;;;4982955;28;20042;-70
2022/07/04 01:32:24;;;;;;;3.70;1.90;;;;;;;;;;4982888;28;20053;-70
2022/07/04 01:34:50;;;;;;;6.57;2.00;;;;;;;;;;4980582;28;20050;-70
2022/07/04 01:37:15;;;;;;;2.17;1.98;;;;;;;;;;4982277;28;20046;-71
2022/07/04 01:39:41;;;;;;;3.25;2.10;;;;;;;;;;4982614;28;20042;-70
2022/07/04 01:42:06;;;;;;;5.13;2.08;;;;;;;;;;4982709;28;20045;-71
2022/07/04 01:44:32;;;;;;;4.28;2.15;;;;;;;;;;4981506;28;20530;-70
2022/07/04 01:46:57;;;;;;;2.20;2.00;;;;;;;;;;4977543;28;20454;-71
2022/07/04 01:49:23;;;;;;;4.63;2.80;;;;;;;;;;4981241;28;20061;-69
2022/07/04 01:51:50;;;;;;;4.90;1.98;;;;;;;;;;4981795;28;20029;-70
2022/07/04 01:54:16;;;;;;;3.05;2.33;;;;;;;;;;4982226;28;20087;-70
2022/07/04 01:56:42;;;;;;;5.90;2.03;;;;;;;;;;4980997;28;20403;-70
2022/07/04 01:59:08;;;;;;;7.60;2.08;;;;;;;;;;4982213;28;20038;-70
2022/07/04 02:01:33;;;;;;;3.53;1.85;;;;;;;;;;4982560;28;20049;-70
2022/07/04 02:04:02;;;;;;;2.35;2.05;;;;;;;;;;4980795;28;20077;-71
2022/07/04 02:06:29;;;;;;;2.97;2.20;;;;;;;;;;4981106;28;20041;-71
2022/07/04 02:14:23;;;;;;;2.33;2.10;;;;;;;;;;4981955;28;20125;-70
2022/07/04 02:16:49;;;;;;;2.97;2.08;;;;;;;;;;4981468;28;20040;-70
2022/07/04 02:19:14;;;;;;;2.33;2.13;;;;;;;;;;4981073;28;20130;-70
2022/07/04 02:21:40;;;;;;;2.28;2.08;;;;;;;;;;4981705;28;20459;-71
2022/07/04 02:24:05;;;;;;;3.97;2.05;;;;;;;;;;4981653;28;20038;-70
2022/07/04 02:26:31;;;;;;;2.85;2.20;;;;;;;;;;4981485;28;20522;-70
2022/07/04 02:28:56;;;;;;;2.90;2.10;;;;;;;;;;4981112;28;20108;-71
2022/07/04 02:31:22;;;;;;;4.78;1.92;;;;;;;;;;4980693;28;20041;-70
2022/07/04 02:33:48;;;;;;;2.00;1.90;;;;;;;;;;4981666;28;20501;-70
2022/07/04 02:36:13;;;;;;;3.88;2.20;;;;;;;;;;4981476;28;20053;-70
2022/07/04 02:38:39;;;;;;;3.55;2.17;;;;;;;;;;4981771;28;20046;-70
2022/07/04 02:41:04;;;;;;;3.08;2.00;;;;;;;;;;4980597;28;20038;-70
2022/07/04 02:43:30;;;;;;;4.40;2.00;;;;;;;;;;4981529;28;20042;-70
2022/07/04 02:45:55;;;;;;;1.70;1.60;;;;;;;;;;4981371;28;20048;-70
2022/07/04 02:48:21;;;;;;;3.08;2.08;;;;;;;;;;4981848;28;20133;-70
2022/07/04 02:50:46;;;;;;;3.35;2.03;;;;;;;;;;4980733;28;20038;-71
2022/07/04 02:53:12;;;;;;;2.03;1.80;;;;;;;;;;4981283;28;20034;-71
2022/07/04 02:55:37;;;;;;;3.80;2.40;;;;;;;;;;4981256;28;20165;-70
2022/07/04 02:58:03;;;;;;;4.13;2.20;;;;;;;;;;4981289;28;20038;-70
2022/07/04 03:00:28;;;;;;;2.60;1.50;;;;;;;;;;4983555;28;20118;-70
2022/07/04 03:02:54;;;;;;;1.70;1.60;;;;;;;;;;4984581;28;20042;-72
2022/07/04 03:05:20;;;;;;;2.38;1.90;;;;;;;;;;4985444;28;20034;-71
2022/07/04 03:07:45;;;;;;;4.13;1.90;;;;;;;;;;4985273;28;20822;-71
2022/07/04 03:10:11;;;;;;;3.00;1.70;;;;;;;;;;4985464;28;20491;-70
2022/07/04 03:12:37;;;;;;;2.45;1.88;;;;;;;;;;4984595;28;20414;-70
2022/07/04 03:15:02;;;;;;;4.65;1.75;;;;;;;;;;4983766;28;20049;-71
2022/07/04 03:17:30;;;;;;;1.83;1.73;;;;;;;;;;4984820;28;20132;-71
2022/07/04 03:19:58;;;;;;;2.72;1.70;;;;;;;;;;4985361;28;20121;-70
2022/07/04 03:22:24;;;;;;;2.67;1.73;;;;;;;;;;4985282;28;20141;-71
2022/07/04 03:24:49;;;;;;;5.45;1.88;;;;;;;;;;4984242;28;20050;-70
2022/07/04 03:27:15;;;;;;;2.40;1.80;;;;;;;;;;4984831;28;20038;-70
2022/07/04 03:29:40;;;;;;;1.75;1.65;;;;;;;;;;4983610;28;20036;-71
2022/07/04 03:32:06;;;;;;;2.35;1.77;;;;;;;;;;4985502;28;20671;-71
2022/07/04 03:34:32;;;;;;;3.80;1.45;;;;;;;;;;4984443;28;20034;-70
2022/07/04 03:36:57;;;;;;;2.05;1.85;;;;;;;;;;4985629;28;20285;-71
2022/07/04 03:39:23;;;;;;;2.45;1.65;;;;;;;;;;4984957;28;20034;-71
2022/07/04 03:41:48;;;;;;;2.53;1.90;;;;;;;;;;4984928;28;20042;-71
2022/07/04 03:44:14;;;;;;;3.95;1.75;;;;;;;;;;4985004;28;20530;-70
2022/07/04 03:46:39;;;;;;;3.05;2.00;;;;;;;;;;4981367;28;20035;-71
2022/07/04 03:49:05;;;;;;;6.05;2.10;;;;;;;;;;4983709;28;20479;-70
2022/07/04 03:51:31;;;;;;;2.58;1.95;;;;;;;;;;4984296;28;20034;-70
2022/07/04 03:53:56;;;;;;;3.22;1.63;;;;;;;;;;4984884;28;20133;-71
2022/07/04 03:56:22;;;;;;;2.15;1.95;;;;;;;;;;4981257;28;20066;-70
2022/07/04 03:58:50;;;;;;;2.08;1.63;;;;;;;;;;4984145;28;20065;-71
2022/07/04 04:01:19;;;;;;;2.80;1.85;;;;;;;;;;4985296;28;20112;-69
2022/07/04 04:06:29;;;;;;;2.83;1.58;;;;;;;;;;4984505;28;20045;-69
2022/07/04 04:08:55;;;;;;;2.30;1.45;;;;;;;;;;4983584;28;20038;-69
2022/07/04 04:11:21;;;;;;;3.47;1.70;;;;;;;;;;4983934;28;20041;-70
2022/07/04 04:13:46;;;;;;;3.33;1.88;;;;;;;;;;4983962;28;20997;-70
2022/07/04 04:16:12;;;;;;;5.03;2.00;;;;;;;;;;4982757;28;20042;-70
2022/07/04 04:18:37;;;;;;;1.88;1.75;;;;;;;;;;4982958;28;20076;-70
2022/07/04 04:21:04;;;;;;;6.80;1.80;;;;;;;;;;4984166;28;20034;-70
2022/07/04 04:23:29;;;;;;;2.17;1.90;;;;;;;;;;4983857;28;20041;-70
2022/07/04 04:25:55;;;;;;;3.38;1.60;;;;;;;;;;4983952;28;20027;-70
2022/07/04 04:28:21;;;;;;;3.63;1.90;;;;;;;;;;4983994;28;20046;-70
2022/07/04 04:30:46;;;;;;;1.80;1.70;;;;;;;;;;4983166;28;20037;-70
2022/07/04 04:33:12;;;;;;;2.95;1.63;;;;;;;;;;4983795;28;20580;-70
2022/07/04 04:35:38;;;;;;;2.78;1.80;;;;;;;;;;4983520;28;20089;-70
2022/07/04 04:38:03;;;;;;;3.25;1.88;;;;;;;;;;4983507;28;20065;-70
2022/07/04 04:40:29;;;;;;;2.10;1.70;;;;;;;;;;4982705;28;20470;-70
2022/07/04 04:42:55;;;;;;;3.95;1.83;;;;;;;;;;4983476;28;20038;-70
2022/07/04 04:45:21;;;;;;;2.42;1.88;;;;;;;;;;4983693;28;20049;-69
2022/07/04 04:47:47;;;;;;;4.30;2.70;;;;;;;;;;4983056;28;20491;-70
2022/07/04 04:50:14;;;;;;;4.13;2.40;;;;;;;;;;4983487;28;20483;-70
2022/07/04 04:52:43;;;;;;;4.20;2.30;;;;;;;;;;4982734;28;20125;-70
2022/07/04 04:55:09;;;;;;;2.45;2.25;;;;;;;;;;4983531;28;20058;-70
2022/07/04 04:57:35;;;;;;;2.22;2.00;;;;;;;;;;4983144;28;20038;-71
2022/07/04 05:00:01;;;;;;;2.97;2.30;;;;;;;;;;4978533;28;20101;-71
2022/07/04 05:02:27;;;;;;;4.45;2.25;;;;;;;;;;4981290;28;20866;-72
2022/07/04 05:04:53;;;;;;;3.10;2.17;;;;;;;;;;4982782;28;20042;-72
2022/07/04 05:07:19;;;;;;;3.10;2.00;;;;;;;;;;4982729;28;20030;-72
2022/07/04 05:09:44;;;;;;;4.95;2.25;;;;;;;;;;4982195;28;20030;-73
2022/07/04 05:12:10;;;;;;;2.53;2.22;;;;;;;;;;4983018;28;20048;-71
2022/07/04 05:14:36;;;;;;;2.25;2.03;;;;;;;;;;4981840;28;20046;-70
2022/07/04 05:17:02;;;;;;;2.58;1.85;;;;;;;;;;4976865;28;20069;-70
2022/07/04 05:19:29;;;;;;;2.97;2.17;;;;;;;;;;4982625;28;20049;-69
2022/07/04 05:21:55;;;;;;;2.17;1.95;;;;;;;;;;4982681;28;20460;-70
2022/07/04 05:24:20;;;;;;;2.58;2.25;;;;;;;;;;4964466;28;20034;-73
2022/07/04 05:26:46;;;;;;;2.95;1.75;;;;;;;;;;4982031;28;21050;-70
2022/07/04 05:29:11;;;;;;;2.45;2.03;;;;;;;;;;4982793;28;20117;-71
2022/07/04 05:31:37;;;;;;;2.45;1.80;;;;;;;;;;4982523;28;20064;-69
2022/07/04 05:34:02;;;;;;;3.00;1.90;;;;;;;;;;4981431;28;20049;-71
2022/07/04 05:36:28;;;;;;;2.88;2.05;;;;;;;;;;4981111;28;20065;-69
2022/07/04 05:38:53;;;;;;;4.03;2.38;;;;;;;;;;4981050;28;20038;-72
2022/07/04 05:41:19;;;;;;;4.07;2.10;;;;;;;;;;4982359;28;20717;-70
2022/07/04 05:43:44;;;;;;;2.58;2.00;;;;;;;;;;4980983;28;20124;-71
2022/07/04 05:46:10;;;;;;;1.90;1.80;;;;;;;;;;4981449;28;20100;-69
2022/07/04 05:48:35;;;;;;;3.75;2.00;;;;;;;;;;4981389;28;20586;-70
2022/07/04 05:51:05;;;;;;;2.88;1.70;;;;;;;;;;4982205;28;20050;-69
2022/07/04 05:53:31;;;;;;;3.35;1.90;;;;;;;;;;4982659;28;20041;-69
2022/07/04 05:55:57;;;;;;;3.35;1.75;;;;;;;;;;4982189;28;20550;-70
2022/07/04 05:58:22;;;;;;;3.45;1.95;;;;;;;;;;4981110;28;20089;-69
2022/07/04 06:00:48;;;;;;;2.80;2.17;;;;;;;;;;4981717;28;20486;-70
2022/07/04 06:03:13;;;;;;;2.28;1.75;;;;;;;;;;4982487;28;20934;-68
2022/07/04 06:05:38;;;;;;;4.28;1.80;;;;;;;;;;4982009;28;20407;-70
2022/07/04 06:08:04;;;;;;;1.83;1.70;;;;;;;;;;4981738;28;20038;-70
2022/07/04 06:10:30;;;;;;;2.58;2.03;;;;;;;;;;4980561;28;20522;-70
2022/07/04 06:12:55;;;;;;;2.10;1.90;;;;;;;;;;4980441;28;20050;-71
2022/07/04 06:15:21;;;;;;;2.97;1.95;;;;;;;;;;4980104;28;20491;-70
2022/07/04 06:17:50;;;;;;;2.63;1.80;;;;;;;;;;4981313;28;20871;-69
2022/07/04 06:20:16;;;;;;;2.47;1.80;;;;;;;;;;4981388;28;20042;-69
2022/07/04 06:22:46;;;;;;;2.65;1.83;;;;;;;;;;4980203;28;20042;-69
2022/07/04 06:25:17;;;;;;;3.33;1.83;;;;;;;;;;4981770;28;20042;-71
2022/07/04 06:27:43;;;;;;;2.80;1.63;;;;;;;;;;4981623;28;20030;-69
2022/07/04 06:30:10;;;;;;;1.70;1.60;;;;;;;;;;4981646;28;20074;-69
2022/07/04 06:32:55;;;;;;;5.10;1.65;;;;;;;;;;4981354;28;20480;-69
2022/07/04 06:38:08;;;;;;;1.50;1.40;;;;;;;;;;4981529;28;20117;-69
2022/07/04 06:40:35;;;;;;;2.15;1.50;;;;;;;;;;4981900;28;20570;-70
2022/07/04 06:43:00;;;;;;;2.50;1.58;;;;;;;;;;4980880;28;20057;-70
2022/07/04 06:45:26;;;;;;;1.50;1.40;;;;;;;;;;4980416;28;20034;-71
2022/07/04 06:47:51;;;;;;;1.52;1.30;;;;;;;;;;4981547;28;20057;-71
2022/07/04 06:50:17;;;;;;;2.17;1.30;;;;;;;;;;4981228;28;20034;-71
2022/07/04 06:52:43;;;;;;;1.40;1.20;;;;;;;;;;4980561;28;20182;-71
2022/07/04 06:55:09;;;;;;;2.58;1.42;;;;;;;;;;4981727;28;20222;-71
2022/07/04 06:57:34;;;;;;;1.95;1.20;;;;;;;;;;4981811;28;20042;-70
2022/07/04 07:00:00;;;;;;;1.48;1.35;;;;;;;;;;4981456;28;20205;-70
2022/07/04 07:02:26;;;;;;;1.35;1.23;;;;;;;;;;4981647;28;20499;-69
2022/07/04 07:04:53;;;;;;;1.20;1.10;;;;;;;;;;4980633;28;20433;-73
2022/07/04 07:07:19;;;;;;;2.78;1.38;;;;;;;;;;4980229;28;20072;-70
2022/07/04 07:09:44;;;;;;;2.67;1.50;;;;;;;;;;4981202;28;20117;-70
2022/07/04 07:12:10;;;;;;;1.52;1.10;;;;;;;;;;4981821;28;20176;-71
2022/07/04 07:14:35;;;;;;;3.55;1.20;;;;;;;;;;4981676;28;20120;-71
2022/07/04 07:17:02;;;;;;;2.35;1.30;;;;;;;;;;4980546;28;20042;-72
2022/07/04 07:19:27;;;;;;;1.50;1.13;;;;;;;;;;4980247;28;20077;-70
2022/07/04 07:21:53;;;;;;;6.68;2.10;;;;;;;;;;4979254;28;20148;-72
2022/07/04 07:24:18;;;;;;;2.05;0.93;;;;;;;;;;4979766;28;20053;-70
2022/07/04 07:26:44;;;;;;;2.58;1.23;;;;;;;;;;4978656;28;20034;-69
2022/07/04 07:29:09;;;;;;;8.60;1.25;;;;;;;;;;4975819;28;20043;-73
2022/07/04 07:31:35;;;;;;;3.75;1.40;;;;;;;;;;4980217;28;20038;-71
2022/07/04 07:34:00;;;;;;;1.35;1.23;;;;;;;;;;4980226;28;20049;-69
2022/07/04 07:36:26;;;;;;;2.22;1.20;;;;;;;;;;4979840;28;20692;-70
2022/07/04 07:38:53;;;;;;;3.35;1.33;;;;;;;;;;4980790;28;20121;-70
2022/07/04 07:41:18;;;;;;;3.20;1.60;;;;;;;;;;4980859;28;20080;-70
2022/07/04 07:43:44;;;;;;;4.80;1.23;;;;;;;;;;4980866;28;20034;-69
2022/07/04 07:46:09;;;;;;;4.68;1.10;;;;;;;;;;4980948;28;20046;-73
2022/07/04 07:48:35;;;;;;;4.05;1.23;;;;;;;;;;4983372;28;20042;-74
2022/07/04 07:51:00;;;;;;;1.70;1.20;;;;;;;;;;4984470;28;20975;-71
2022/07/04 07:53:26;;;;;;;2.15;1.30;;;;;;;;;;4983205;28;20042;-75
2022/07/04 07:55:51;;;;;;;1.98;1.10;;;;;;;;;;4984028;28;20111;-70
2022/07/04 07:58:17;;;;;;;1.88;1.30;;;;;;;;;;4982372;28;20629;-70
2022/07/04 08:00:42;;;;;;;4.30;1.10;;;;;;;;;;4984316;28;20030;-71
2022/07/04 08:05:52;;;;;;;4.57;1.20;;;;;;;;;;4984389;28;20046;-75
2022/07/04 08:08:18;;;;;;;1.65;1.10;;;;;;;;;;4982920;28;20065;-75
2022/07/04 08:10:43;;;;;;;3.63;1.50;;;;;;;;;;4978537;28;20042;-75
2022/07/04 08:13:09;;;;;;;2.72;1.13;;;;;;;;;;4983953;28;20047;-72
2022/07/04 08:15:35;;;;;;;3.60;1.35;;;;;;;;;;4983725;28;20038;-73
2022/07/04 08:18:01;;;;;;;1.20;1.10;;;;;;;;;;4983808;28;20022;-75
2022/07/04 08:20:26;;;;;;;3.72;1.20;;;;;;;;;;4983476;28;20046;-76
2022/07/04 08:22:52;;;;;;;1.40;1.10;;;;;;;;;;4984146;28;20034;-73
2022/07/04 08:25:17;;;;;;;2.20;1.17;;;;;;;;;;4983932;28;20045;-74
2022/07/04 08:27:43;;;;;;;2.67;1.17;;;;;;;;;;4983651;28;20034;-73
2022/07/04 08:30:09;;;;;;;2.95;1.20;;;;;;;;;;4983717;28;20030;-75
2022/07/04 08:32:35;;;;;;;4.50;1.20;;;;;;;;;;4981332;28;20030;-73
2022/07/04 08:35:02;;;;;;;1.25;1.13;;;;;;;;;;4982898;28;20046;-76
2022/07/04 08:37:28;;;;;;;3.42;1.25;;;;;;;;;;4983916;28;20038;-77
2022/07/04 08:39:54;;;;;;;1.98;1.27;;;;;;;;;;4982378;28;20045;-73
2022/07/04 08:42:21;;;;;;;2.17;1.10;;;;;;;;;;4981707;28;20042;-75
2022/07/04 08:44:49;;;;;;;2.65;1.35;;;;;;;;;;4983430;28;20175;-74
2022/07/04 08:47:23;;;;;;;2.22;1.30;;;;;;;;;;4982019;28;20030;-74
2022/07/04 08:49:58;;;;;;;2.97;1.30;;;;;;;;;;4983260;28;20073;-72
2022/07/04 08:52:56;;;;;;;3.20;1.20;;;;;;;;;;4982168;28;20034;-73
2022/07/04 08:58:26;;;;;;;4.15;1.45;;;;;;;;;;4981959;28;20037;-74
2022/07/04 09:00:53;;;;;;;7.47;1.15;;;;;;;;;;4981136;28;20066;-71
2022/07/04 09:03:19;;;;;;;1.77;1.13;;;;;;;;;;4981883;28;20113;-72
2022/07/04 09:05:45;;;;;;;1.90;1.10;;;;;;;;;;4982753;28;20049;-72
2022/07/04 09:08:12;;;;;;;1.40;0.90;;;;;;;;;;4982246;28;20367;-71
2022/07/04 09:10:38;;;;;;;2.88;1.40;;;;;;;;;;4981989;28;20065;-72
2022/07/04 09:13:09;;;;;;;2.35;1.40;;;;;;;;;;4982929;28;20125;-70
2022/07/04 09:15:34;;;;;;;3.13;1.40;;;;;;;;;;4981816;28;20042;-71
2022/07/04 09:18:01;;;;;;;2.47;1.08;;;;;;;;;;4982447;28;20049;-71
2022/07/04 09:20:28;;;;;;;2.00;1.00;;;;;;;;;;4981106;28;20046;-74
2022/07/04 09:22:54;;;;;;;1.42;1.05;;;;;;;;;;4982186;28;21032;-71
2022/07/04 09:25:21;;;;;;;2.10;1.30;;;;;;;;;;4981791;28;20789;-74
2022/07/04 09:27:56;;;;;;;4.07;1.20;;;;;;;;;;4981780;28;20034;-73
2022/07/04 09:30:27;;;;;;;2.45;1.00;;;;;;;;;;4982121;28;20062;-72
2022/07/04 09:33:00;;;;;;;3.38;1.30;;;;;;;;;;4981604;28;20030;-72
2022/07/04 09:35:27;;;;;;;5.03;1.05;;;;;;;;;;4983247;28;20089;-73
2022/07/04 09:37:59;;;;;;;1.58;1.00;;;;;;;;;;4981378;28;20071;-73
2022/07/04 09:41:24;;;;;;;2.75;1.15;;;;;;;;;;4982536;28;20038;-73
2022/07/04 09:43:19;;;;;;;4.35;1.20;;;;;;;;;;4981632;28;20049;-73
2022/07/04 09:45:55;;;;;;;2.03;0.98;;;;;;;;;;4982258;28;20038;-74
2022/07/04 09:48:21;;;;;;;4.13;1.30;;;;;;;;;;4981247;28;20026;-73
2022/07/04 09:50:46;;;;;;;2.88;1.30;;;;;;;;;;4980678;28;20034;-72
2022/07/04 09:53:12;;;;;;;1.83;1.02;;;;;;;;;;4982778;28;20053;-72
2022/07/04 09:55:38;;;;;;;1.42;0.95;;;;;;;;;;4981915;28;20061;-73
2022/07/04 09:58:09;;;;;;;0.80;0.80;;;;;;;;;;4981854;28;20069;-72
2022/07/04 10:00:39;;;;;;;3.60;1.25;;;;;;;;;;4981672;28;20519;-72
2022/07/04 10:03:23;;;;;;;2.20;1.20;;;;;;;;;;4982157;28;20034;-72
2022/07/04 10:06:06;;;;;;;;;;;;;;;;;;4982219;28;20142;-73
2022/07/04 10:08:33;;;;;;;2.17;1.08;;;;;;;;;;4981841;28;19924;-73
2022/07/04 10:11:00;;;;;;;3.40;1.20;;;;;;;;;;4980298;28;20065;-73
2022/07/04 10:13:26;;;;;;;3.42;0.90;;;;;;;;;;4984273;28;20487;-74
2022/07/04 10:15:51;;;;;;;1.55;0.90;;;;;;;;;;4983244;28;20056;-72
2022/07/04 10:18:21;;;;;;;2.22;1.25;;;;;;;;;;4982343;28;20035;-72
2022/07/04 10:20:49;;;;;;;1.52;0.93;;;;;;;;;;4980782;28;20046;-72
2022/07/04 10:23:15;;;;;;;1.48;0.90;;;;;;;;;;4980449;28;20550;-72
2022/07/04 10:25:41;;;;;;;3.78;0.82;;;;;;;;;;4981727;28;20377;-74
2022/07/04 10:28:08;;;;;;;1.60;1.00;;;;;;;;;;4981413;28;20038;-72
2022/07/04 10:30:36;;;;;;;3.90;1.00;;;;;;;;;;4980365;28;21483;-73
2022/07/04 10:33:07;;;;;;;2.53;1.13;;;;;;;;;;4981431;28;20121;-74
2022/07/04 10:35:56;;;;;;;1.17;0.80;;;;;;;;;;4981466;28;20038;-72
2022/07/04 10:38:46;;;;;;;1.15;0.77;;;;;;;;;;4981188;28;20491;-73
2022/07/04 10:41:12;;;;;;;2.47;0.85;;;;;;;;;;4980823;28;20034;-73
2022/07/04 10:43:50;;;;;;;2.22;1.00;;;;;;;;;;4981091;28;20239;-73
2022/07/04 10:46:15;;;;;;;7.10;1.08;;;;;;;;;;4980248;28;20061;-73
2022/07/04 10:48:50;;;;;;;1.98;1.00;;;;;;;;;;4963628;28;20485;-73
2022/07/04 10:51:35;;;;;;;1.70;1.00;;;;;;;;;;4981481;28;20050;-72
2022/07/04 10:54:05;;;;;;;1.27;1.13;;;;;;;;;;4980993;28;20034;-72
2022/07/04 10:56:42;;;;;;;1.13;0.98;;;;;;;;;;4981133;28;20065;-69
2022/07/04 10:59:10;;;;;;;1.80;1.13;;;;;;;;;;4981290;28;20045;-73
2022/07/04 11:01:36;;;;;;;1.45;0.80;;;;;;;;;;4981008;28;20038;-73
2022/07/04 11:04:01;;;;;;;2.15;1.10;;;;;;;;;;4980622;28;20653;-73
2022/07/04 11:06:32;;;;;;;1.33;0.82;;;;;;;;;;4981229;28;20046;-73
2022/07/04 11:09:21;;;;;;;2.03;0.80;;;;;;;;;;4981275;28;20038;-73
2022/07/04 11:12:01;;;;;;;2.13;0.93;;;;;;;;;;4979720;28;20068;-73
2022/07/04 11:14:30;;;;;;;1.27;1.00;;;;;;;;;;4980240;28;20038;-73
2022/07/04 11:16:55;;;;;;;0.85;0.85;;;;;;;;;;4980895;28;20483;-71
2022/07/04 11:19:22;;;;;;;1.73;0.98;;;;;;;;;;4980006;28;20109;-72
2022/07/04 11:21:47;;;;;;;1.20;0.80;;;;;;;;;;4981518;28;20085;-73
2022/07/04 11:24:13;;;;;;;1.83;1.00;;;;;;;;;;4983619;28;20055;-72
2022/07/04 11:26:39;;;;;;;1.67;1.00;;;;;;;;;;4982736;28;20064;-72
2022/07/04 11:29:04;;;;;;;2.22;1.00;;;;;;;;;;4979544;28;20038;-72
2022/07/04 11:31:39;;;;;;;3.78;1.15;;;;;;;;;;4978244;28;20153;-72
2022/07/04 11:34:05;;;;;;;3.70;1.10;;;;;;;;;;4978183;28;20069;-73
2022/07/04 11:36:31;;;;;;;1.15;0.85;;;;;;;;;;4976145;28;20121;-73
2022/07/04 11:38:57;;;;;;;2.00;1.33;;;;;;;;;;4977440;28;20105;-72
2022/07/04 11:47:18;;;;;;;1.98;1.38;;;;;;;;;;4983566;28;20585;-71
2022/07/04 11:49:55;;;;;;;2.78;1.13;;;;;;;;;;4982843;28;20048;-71
2022/07/04 11:52:44;;;;;;;2.90;1.10;;;;;;;;;;4981749;28;20511;-71
2022/07/04 11:55:12;;;;;;;1.58;1.17;;;;;;;;;;4984018;28;20535;-71
2022/07/04 11:57:43;;;;;;;1.85;1.23;;;;;;;;;;4983978;28;20038;-71
2022/07/04 12:00:14;;;;;;;1.10;1.00;;;;;;;;;;4984919;28;20098;-71
2022/07/04 12:02:41;;;;;;;2.58;1.30;;;;;;;;;;4983353;28;20068;-71
2022/07/04 12:05:11;;;;;;;2.72;1.30;;;;;;;;;;4966795;28;20045;-71
2022/07/04 12:07:39;;;;;;;3.92;1.27;;;;;;;;;;4984377;28;20058;-71
2022/07/04 12:10:22;;;;;;;4.18;1.30;;;;;;;;;;4984090;28;20034;-71
2022/07/04 12:13:11;;;;;;;2.00;1.10;;;;;;;;;;4982983;28;20058;-71
2022/07/04 12:15:42;;;;;;;2.95;1.58;;;;;;;;;;4983940;28;20039;-70
2022/07/04 12:18:30;;;;;;;1.38;1.08;;;;;;;;;;4984190;28;20049;-72
2022/07/04 12:21:15;;;;;;;2.78;1.23;;;;;;;;;;4982359;28;20038;-72
2022/07/04 12:23:41;;;;;;;3.15;1.50;;;;;;;;;;4982912;28;20066;-71
2022/07/04 12:26:09;;;;;;;3.40;1.10;;;;;;;;;;4983688;28;20077;-71
2022/07/04 12:28:38;;;;;;;3.97;1.45;;;;;;;;;;4983872;28;20037;-71
2022/07/04 12:31:04;;;;;;;1.80;1.20;;;;;;;;;;4983012;28;20038;-73
2022/07/04 12:33:30;;;;;;;1.42;0.80;;;;;;;;;;4981178;28;20037;-72
2022/07/04 12:35:58;;;;;;;2.97;1.15;;;;;;;;;;4983026;28;20061;-72
2022/07/04 12:38:27;;;;;;;1.55;1.05;;;;;;;;;;4983703;28;20038;-73
2022/07/04 12:40:52;;;;;;;1.77;1.00;;;;;;;;;;4983410;28;20038;-73
2022/07/04 12:43:18;;;;;;;4.35;1.10;;;;;;;;;;4983096;28;20049;-72
2022/07/04 12:45:43;;;;;;;2.05;1.17;;;;;;;;;;4982724;28;20046;-72
2022/07/04 12:48:22;;;;;;;2.30;1.10;;;;;;;;;;4983136;28;20376;-72
2022/07/04 12:50:47;;;;;;;1.38;1.20;;;;;;;;;;4983401;28;20505;-71
2022/07/04 12:53:13;;;;;;;1.67;1.10;;;;;;;;;;4983865;28;20149;-71
2022/07/04 12:55:43;;;;;;;1.38;1.00;;;;;;;;;;4983385;28;20041;-73
2022/07/04 12:58:10;;;;;;;2.17;1.10;;;;;;;;;;4982450;28;20042;-74
2022/07/04 13:00:36;;;;;;;2.88;0.80;;;;;;;;;;4981942;28;20411;-73
2022/07/04 13:03:02;;;;;;;2.28;1.00;;;;;;;;;;4983106;28;20057;-73
2022/07/04 13:05:27;;;;;;;3.83;1.10;;;;;;;;;;4983277;28;20038;-73
2022/07/04 13:07:53;;;;;;;4.40;1.08;;;;;;;;;;4982021;28;20030;-72
2022/07/04 13:10:19;;;;;;;3.13;0.90;;;;;;;;;;4982530;28;20061;-72
2022/07/04 13:12:44;;;;;;;4.85;1.40;;;;;;;;;;4981274;28;20053;-72
2022/07/04 13:15:11;;;;;;;1.58;1.02;;;;;;;;;;4982882;28;20189;-72
2022/07/04 13:17:37;;;;;;;1.10;0.90;;;;;;;;;;4982416;28;20034;-72
2022/07/04 13:20:03;;;;;;;3.15;0.93;;;;;;;;;;4981694;28;20071;-71
2022/07/04 13:22:29;;;;;;;1.05;0.90;;;;;;;;;;4982798;28;20141;-71
2022/07/04 13:24:54;;;;;;;2.42;1.05;;;;;;;;;;4982260;28;20232;-72
2022/07/04 13:27:20;;;;;;;2.38;1.13;;;;;;;;;;4982196;28;20077;-73
2022/07/04 13:29:46;;;;;;;1.67;0.98;;;;;;;;;;4981713;28;20038;-72
2022/07/04 13:32:11;;;;;;;1.67;1.10;;;;;;;;;;4981908;28;20038;-73
2022/07/04 13:34:37;;;;;;;3.63;1.15;;;;;;;;;;4981389;28;20046;-71
2022/07/04 13:37:03;;;;;;;0.95;0.90;;;;;;;;;;4981978;28;21124;-71
2022/07/04 13:39:29;;;;;;;1.50;1.10;;;;;;;;;;4982740;28;20050;-72
2022/07/04 13:41:55;;;;;;;2.25;1.00;;;;;;;;;;4981389;28;20042;-72
2022/07/04 13:44:20;;;;;;;1.17;1.00;;;;;;;;;;4981689;28;20046;-71
2022/07/04 13:46:45;;;;;;;1.48;1.00;;;;;;;;;;4981626;28;20034;-71
2022/07/04 13:49:11;;;;;;;1.05;0.90;;;;;;;;;;4981460;28;20108;-71
2022/07/04 13:51:38;;;;;;;1.63;1.00;;;;;;;;;;4980689;28;20046;-72
2022/07/04 13:54:03;;;;;;;2.05;0.90;;;;;;;;;;4980540;28;20149;-72
2022/07/04 13:56:29;;;;;;;1.65;0.90;;;;;;;;;;4981861;28;20046;-73
2022/07/04 13:58:54;;;;;;;2.47;1.20;;;;;;;;;;4981750;28;20046;-70
2022/07/04 14:01:21;;;;;;;4.55;1.23;;;;;;;;;;4981774;28;20089;-72
2022/07/04 14:03:48;;;;;;;5.25;1.20;;;;;;;;;;4980400;28;20038;-71
2022/07/04 14:06:14;;;;;;;3.95;1.15;;;;;;;;;;4981980;28;20046;-73
2022/07/04 14:08:39;;;;;;;3.80;1.15;;;;;;;;;;4981674;28;20126;-71
2022/07/04 14:11:05;;;;;;;2.33;1.00;;;;;;;;;;4980392;28;20125;-71
2022/07/04 14:13:30;;;;;;;1.88;1.10;;;;;;;;;;4980917;28;20084;-71
2022/07/04 14:15:56;;;;;;;1.63;1.00;;;;;;;;;;4981499;28;20053;-72
2022/07/04 14:18:22;;;;;;;2.17;1.00;;;;;;;;;;4981614;28;20387;-72
2022/07/04 14:20:49;;;;;;;1.10;1.00;;;;;;;;;;4981358;28;20133;-71
2022/07/04 14:23:39;;;;;;;2.75;1.10;;;;;;;;;;4982017;28;20042;-72
2022/07/04 14:26:00;;;;;;;2.75;1.10;;;;;;;;;;4980510;28;20050;-72
2022/07/04 14:28:25;;;;;;;1.63;1.00;;;;;;;;;;4981566;28;20034;-73
2022/07/04 14:30:50;;;;;;;1.45;0.90;;;;;;;;;;4981356;28;20042;-71
2022/07/04 14:33:37;;;;;;;3.63;1.15;;;;;;;;;;4985224;28;20042;-71
2022/07/04 14:36:07;;;;;;;1.45;1.35;;;;;;;;;;4977900;28;20050;-70
2022/07/04 14:38:32;;;;;;;2.28;1.05;;;;;;;;;;4981175;28;20038;-69
2022/07/04 14:41:09;;;;;;;2.78;1.25;;;;;;;;;;4981114;28;20049;-70
2022/07/04 14:43:39;;;;;;;2.00;1.33;;;;;;;;;;4980446;28;20046;-70
2022/07/04 14:46:05;;;;;;;1.67;1.10;;;;;;;;;;4981397;28;20042;-70
2022/07/04 14:48:31;;;;;;;1.75;1.10;;;;;;;;;;4979035;28;20039;-70
2022/07/04 14:50:56;;;;;;;1.90;1.23;;;;;;;;;;4981432;28;20042;-70
2022/07/04 14:53:21;;;;;;;2.92;1.35;;;;;;;;;;4982345;28;20050;-68
2022/07/04 14:55:48;;;;;;;2.78;1.20;;;;;;;;;;4983178;28;20096;-69
2022/07/04 14:58:14;;;;;;;2.83;1.42;;;;;;;;;;4984620;28;20069;-68
2022/07/04 15:00:39;;;;;;;4.07;1.17;;;;;;;;;;4986136;28;20208;-68
2022/07/04 15:03:05;;;;;;;3.10;1.30;;;;;;;;;;4985889;28;20353;-68
2022/07/04 15:05:30;;;;;;;2.67;1.25;;;;;;;;;;4985453;28;20046;-71
2022/07/04 15:07:56;;;;;;;1.25;1.05;;;;;;;;;;4985511;28;20022;-70